Altama, Georgia
Current Conditions -  °F | °C
As of 8:35 PM on Monday 24 Nov 2014 (Local Time) from KBQK Reporting Station
Thunderstorm Thunderstorm  
Wind Chill: 70°   Ceiling: 2600
Heat Index: 70°   Visibility: 4mi
Dew Point: 66°   Wind: 3mph
Humidity: 88%   Direction: 330°NNW
Pressure: 29.98"   Gusts: NA
Location:  31.1773°N, 81.4991°W
Report Text: KBQK 250135Z AUTO 33003KT 4SM TS BKN026 BKN034 OVC041 21/19 A2998 RMK AO1 LTG DSNT N AND W
Loading
Personal Weather Stations






























Interactive Weather Map New forecast layout! Learn more

10-Day Weather Forecast

Advertisements
Track Severe Weather on mobile